Pudsey, United Kingdom
Current Conditions -  °F | °C
As of 2:20 PM on Monday 22 Dec 2014 (Local Time) from EGNM Reporting Station
Broken Clouds Broken Clouds  
Wind Chill: 54°   Ceiling: 1900
Heat Index: 54°   Visibility: 6mi
Dew Point: 46°   Wind: 37mph
Humidity: 77%   Direction: 260°W
Pressure: 29.68"   Gusts: 52mph
Location:  53.8°N, 1.66°W
Report Text: EGNM 221420Z 26032G45KT 9999 BKN019 12/08 Q1005
Loading
Personal Weather Stations






























Interactive Weather Map New forecast layout! Learn more

10-Day Weather Forecast

Advertisements
Track Severe Weather on mobile